Sunday, October 22, 2017, 8:42 PM EDT
Back to Local

KYNG, Youngstown-warren Reg Airprt

Location: Vienna, OH, United States Lat: 41.25
Local Time: 8:42 PM EDT ( 0:42 GMT) Lon: -80.667
Time Zone: US/Eastern Elev: 1197 ft

Show me the last for .
Show Coded

Time T Td Feel RH Dir Speed Gust Alt SLP Vis Weather Sky Remarks
2017-10-22 19:51 60 50 - 69 130° 7 - 30.17 30.17 10 BKN240 6-hr Min Temp (8pm): 59.0°F
6-hr Max Temp (8pm): 75.9°F
2017-10-22 18:51 67 48 - 50 140° 5 - 30.18 30.17 10 FEW140 SCT170 BKN240 None
2017-10-22 17:51 73 49 76 42 170° 7 - 30.17 30.16 10 SCT140 BKN170 BKN240 None
2017-10-22 16:51 75 51 77 43 Variable 6 - 30.16 30.16 10 SCT170 BKN240 None
2017-10-22 15:51 75 51 77 43 160° 9 - 30.19 30.18 10 BKN250 None
2017-10-22 14:51 75 50 77 41 Variable 7 - 30.20 30.19 10 BKN250 None
2017-10-22 13:51 74 53 77 48 160° 8 - 30.22 30.21 10 BKN250 6-hr Min Temp (2pm): 52.0°F
6-hr Max Temp (2pm): 73.9°F
2017-10-22 12:51 71 53 76 53 150° 9 - 30.25 30.24 10 SCT250 None
2017-10-22 11:51 67 52 - 58 200° 9 - 30.28 30.27 10 SCT250 None
2017-10-22 10:51 66 53 - 63 180° 9 - 30.27 30.27 10 SCT250 None
2017-10-22 09:51 63 52 - 67 170° 12 - 30.28 30.27 10 BKN250 None
2017-10-22 08:51 57 51 - 80 130° 7 - 30.29 30.28 10 BKN250 None
2017-10-22 07:51 52 49 - 89 130° 9 - 30.27 30.27 10 BKN250 6-hr Min Temp (8am): 46.9°F
6-hr Max Temp (8am): 60.1°F
2017-10-22 06:51 51 49 - 92 130° 7 - 30.27 30.27 10 SCT250 None
2017-10-22 05:51 51 49 - 92 120° 9 - 30.28 30.27 10 FEW250 None
2017-10-22 04:51 49 47 46 92 130° 7 - 30.27 30.27 10 FEW250 None
2017-10-22 03:51 53 49 - 85 140° 6 - 30.26 30.25 10 SCT250 None
2017-10-22 02:51 53 49 - 85 130° 6 - 30.25 30.24 10 SCT250 None
2017-10-22 01:51 59 50 - 72 160° 7 - 30.24 30.23 10 SCT250 6-hr Min Temp (2am): 52.0°F
6-hr Max Temp (2am): 64.9°F
2017-10-22 00:51 58 50 - 74 160° 7 - 30.24 30.24 10 SCT250 24-hr Min Temp (1am): 39.9°F
24-hr Max Temp (1am): 73.0°F
2017-10-21 23:51 55 49 - 79 150° 7 - 30.25 30.24 10 SCT250 None
2017-10-21 22:51 58 50 - 74 160° 6 - 30.26 30.25 10 BKN240 None
2017-10-21 21:51 62 51 - 67 170° 7 - 30.27 30.26 10 OVC240 None
2017-10-21 20:51 63 51 - 65 180° 3 - 30.27 30.27 10 BKN240 None

Support USWX by starting your Amazon purchase here.